Latest Weather Observations for Pirlangimpi

IDD60801

Issued at 4:35 pm CST Saturday 23 August 2014 (issued every 30 minutes, with the page automatically refreshed every 10 minutes)

About weather observations | Map of weather stations | Latest weather observations for NT | Other Formats
Station Details ID: 014142 Name: PIRLANGIMPI AIRPORT Lat: -11.40 Lon: 130.42 Height: 18.3 m
Data from the previous 72 hours. | See also: Recent months at Pirlangimpi
Date/Time
CST
Temp
°C
App
Temp
°C
Dew
Point
Rel
Hum
%
Delta-T
°C
Wind Press
QNH
hPa
Press
MSL
hPa
Rain
since 9 am
mm
Dir
 
Spd
km/h
Gust
km/h
Spd
kts
Gust
kts
23/04:30pm 29.6 29.4 14.6 40 9.1 NW 9 15 5 8 1012.0 1011.9 0.0
23/04:00pm 30.9 27.3 6.7 22 13.0 SSW 15 20 8 11 1012.3 - 0.0
23/03:30pm 30.6 27.7 9.5 27 11.9 SSW 15 20 8 11 1012.5 1012.4 0.0
23/03:00pm 31.1 27.3 7.5 23 12.9 SSW 17 24 9 13 1012.6 1012.5 0.0
23/02:30pm 31.3 28.4 9.5 26 12.3 SSW 15 26 8 14 1012.9 1012.8 0.0
23/02:00pm 30.9 27.3 6.7 22 13.0 SSW 15 19 8 10 1013.4 - 0.0
23/01:30pm 31.9 29.5 6.9 21 13.6 S 9 17 5 9 1014.0 1013.9 0.0
23/01:00pm 32.0 29.1 4.7 18 14.3 ESE 9 19 5 10 1014.6 - 0.0
23/12:30pm 31.0 27.2 3.9 18 13.9 E 13 24 7 13 1014.9 1014.8 0.0
23/12:00pm 31.0 27.6 7.5 23 12.8 ENE 15 30 8 16 1015.4 1015.3 0.0
23/11:30am 30.7 28.1 7.8 24 12.5 ENE 11 20 6 11 1016.0 1015.9 0.0
23/11:00am 29.0 27.4 10.2 31 10.6 E 9 19 5 10 1016.3 - 0.0
23/10:30am 27.8 28.1 15.1 46 7.7 ENE 7 17 4 9 1016.7 1016.6 0.0
23/10:00am 26.4 26.2 15.8 52 6.5 E 11 19 6 10 1016.9 - 0.0
23/09:30am 25.7 26.3 15.7 54 6.1 ENE 7 17 4 9 1016.7 1016.6 0.0
23/09:00am 23.8 24.8 16.3 63 4.6 E 6 9 3 5 1016.6 1016.5 0.0
23/08:30am 21.4 22.0 15.9 71 3.3 E 7 11 4 6 1016.5 1016.4 0.0
23/08:00am 19.5 19.8 16.0 80 2.1 E 9 11 5 6 1016.3 - 0.0
23/07:30am 17.1 16.6 14.9 87 1.3 E 11 15 6 8 1016.0 1015.9 0.0
23/07:00am 14.2 13.5 13.2 94 0.6 ENE 9 13 5 7 1015.4 - 0.0
23/06:30am 13.9 13.6 12.8 93 0.6 ENE 6 9 3 5 1014.8 1014.7 0.0
23/06:00am 14.4 14.6 13.1 92 0.7 ENE 4 6 2 3 1014.3 1014.2 0.0
23/05:30am 14.7 15.8 13.6 93 0.6 CALM 0 0 0 0 1014.0 1013.9 0.0
23/05:00am 14.5 15.5 13.2 92 0.7 CALM 0 0 0 0 1013.8 - 0.0
23/04:30am 14.5 15.5 13.2 92 0.7 CALM 0 0 0 0 1013.6 1013.5 0.0
23/04:00am 14.3 14.7 12.5 89 1.0 ENE 2 2 1 1 1013.8 - 0.0
23/03:30am 14.9 15.9 13.3 90 0.9 CALM 0 0 0 0 1013.9 1013.8 0.0
23/03:00am 15.1 15.9 13.8 92 0.7 SE 2 2 1 1 1014.0 1013.9 0.0
23/02:30am 15.1 15.7 13.0 87 1.2 SE 2 4 1 2 1014.2 1014.1 0.0
23/02:00am 15.2 16.0 12.5 84 1.5 CALM 0 4 0 2 1014.6 - 0.0
23/01:30am 15.5 16.3 12.6 83 1.6 CALM 0 0 0 0 1014.8 1014.7 0.0
23/01:00am 15.5 16.2 12.1 80 1.9 CALM 0 0 0 0 1014.9 - 0.0
23/12:30am 15.9 16.1 11.9 77 2.2 ENE 2 4 1 2 1015.0 1014.9 0.0
23/12:00am 16.1 15.9 11.9 76 2.3 ENE 4 4 2 2 1015.0 1014.9 0.0
 
Date/Time
CST
Temp
°C
App
Temp
°C
Dew
Point
Rel
Hum
%
Delta-T
°C
Wind Press
QNH
hPa
Press
MSL
hPa
Rain
since 9 am
mm
Dir
 
Spd
km/h
Gust
km/h
Spd
kts
Gust
kts
22/11:30pm 16.2 16.4 11.8 75 2.4 E 2 6 1 3 1015.0 1014.9 0.0
22/11:00pm 16.9 17.5 12.0 73 2.7 CALM 0 0 0 0 1014.9 - 0.0
22/10:30pm 17.4 17.9 11.7 69 3.1 CALM 0 2 0 1 1014.8 1014.7 0.0
22/10:00pm 17.9 18.1 11.9 68 3.3 NE 2 4 1 2 1014.4 - 0.0
22/09:30pm 18.6 18.2 11.2 62 4.0 N 4 6 2 3 1014.2 1014.1 0.0
22/09:00pm 19.4 19.4 11.2 59 4.5 N 2 4 1 2 1014.2 1014.1 0.0
22/08:30pm 20.1 20.0 10.8 55 5.1 NNW 2 6 1 3 1014.1 1014.0 0.0
22/08:00pm 21.2 21.5 11.0 52 5.6 CALM 0 2 0 1 1013.8 - 0.0
22/07:30pm 22.5 22.4 10.9 48 6.4 NNE 2 6 1 3 1013.4 1013.3 0.0
22/07:00pm 23.5 23.0 10.9 45 7.0 N 4 7 2 4 1013.0 - 0.0
22/06:30pm 25.1 24.2 10.6 40 8.1 N 6 7 3 4 1012.5 1012.4 0.0
22/06:00pm 27.0 26.1 10.7 36 9.2 NNE 6 11 3 6 1012.3 1012.2 0.0
22/05:30pm 28.6 27.5 10.8 33 10.1 N 7 13 4 7 1011.9 1011.8 0.0
22/05:00pm 29.4 29.4 13.6 38 9.4 WNW 6 13 3 7 1011.8 - 0.0
22/04:30pm 30.6 27.5 7.1 23 12.7 S 13 19 7 10 1011.7 1011.6 0.0
22/04:00pm 30.5 26.6 8.8 26 12.1 SSW 19 24 10 13 1011.6 - 0.0
22/03:30pm 30.8 27.5 9.6 27 12.0 SSW 17 24 9 13 1011.6 1011.5 0.0
22/03:00pm 31.3 28.6 11.7 30 11.5 SSW 17 24 9 13 1011.9 1011.8 0.0
22/02:30pm 30.5 27.8 12.9 34 10.4 SSW 19 24 10 13 1012.3 1012.2 0.0
22/02:00pm 30.5 28.0 14.2 37 9.9 SSW 20 26 11 14 1012.7 - 0.0
22/01:30pm 30.3 29.1 14.0 37 9.8 S 13 20 7 11 1013.1 1013.0 0.0
22/01:00pm 32.0 30.1 11.7 28 11.9 E 13 24 7 13 1013.6 - 0.0
22/12:30pm 31.2 29.7 13.0 33 10.8 SSE 13 19 7 10 1014.2 1014.1 0.0
22/12:00pm 30.5 29.5 14.6 38 9.7 E 13 24 7 13 1014.6 1014.5 0.0
22/11:30am 29.5 28.1 13.3 37 9.6 ESE 13 22 7 12 1015.2 1015.1 0.0
22/11:00am 28.8 27.2 13.9 40 8.9 ESE 15 24 8 13 1015.7 - 0.0
22/10:30am 27.8 27.6 16.7 50 6.9 E 13 20 7 11 1016.1 1016.0 0.0
22/10:00am 26.9 27.2 17.9 57 5.7 E 13 20 7 11 1016.5 - 0.0
22/09:30am 25.6 26.3 18.0 63 4.8 E 11 17 6 9 1016.6 1016.5 0.0
22/09:00am 24.0 24.8 18.2 70 3.6 E 11 20 6 11 1016.5 1016.4 0.0
22/08:30am 22.0 23.0 17.8 77 2.6 E 9 17 5 9 1016.2 1016.1 0.0
22/08:00am 20.1 21.2 17.9 87 1.4 E 9 13 5 7 1015.9 - 0.0
22/07:30am 15.9 16.4 14.9 94 0.6 ENE 6 7 3 4 1015.6 1015.5 0.0
22/07:00am 15.8 17.3 14.7 93 0.6 CALM 0 0 0 0 1015.4 - 0.0
22/06:30am 15.9 17.4 14.6 92 0.7 CALM 0 0 0 0 1015.0 1014.9 0.0
22/06:00am 15.9 17.0 14.6 92 0.7 ENE 2 4 1 2 1014.8 1014.7 0.0
22/05:30am 16.1 16.4 14.6 91 0.9 E 6 7 3 4 1014.5 1014.4 0.0
22/05:00am 15.9 16.2 14.6 92 0.7 E 6 9 3 5 1014.4 - 0.0
22/04:30am 16.2 17.7 14.7 91 0.9 CALM 0 4 0 2 1014.4 1014.3 0.0
22/04:00am 16.5 18.1 15.0 91 0.9 CALM 0 0 0 0 1014.2 - 0.0
22/03:30am 16.9 18.6 15.2 90 1.0 CALM 0 0 0 0 1014.4 1014.3 0.0
22/03:00am 17.3 18.4 15.5 89 1.1 SE 4 4 2 2 1014.6 1014.5 0.0
22/02:30am 17.4 18.4 15.4 88 1.2 SSE 4 6 2 3 1014.7 1014.6 0.0
22/02:00am 17.6 18.9 15.2 86 1.4 ENE 2 4 1 2 1014.8 - 0.0
22/01:30am 17.7 19.4 15.3 86 1.4 CALM 0 0 0 0 1015.0 1014.9 0.0
22/01:00am 17.9 19.6 15.2 84 1.6 CALM 0 0 0 0 1015.3 - 0.0
22/12:30am 17.9 19.5 15.0 83 1.7 CALM 0 0 0 0 1015.4 1015.3 0.0
22/12:00am 18.2 19.8 14.9 81 1.9 CALM 0 0 0 0 1015.5 1015.4 0.0
 
Date/Time
CST
Temp
°C
App
Temp
°C
Dew
Point
Rel
Hum
%
Delta-T
°C
Wind Press
QNH
hPa
Press
MSL
hPa
Rain
since 9 am
mm
Dir
 
Spd
km/h
Gust
km/h
Spd
kts
Gust
kts
21/11:30pm 18.5 20.1 14.8 79 2.1 CALM 0 2 0 1 1015.5 1015.4 0.0
21/11:00pm 18.8 20.4 14.9 78 2.3 CALM 0 0 0 0 1015.5 - 0.0
21/10:30pm 19.5 21.0 14.7 74 2.8 CALM 0 2 0 1 1015.1 1015.0 0.0
21/10:00pm 20.2 21.8 14.8 71 3.2 CALM 0 2 0 1 1014.9 - 0.0
21/09:30pm 21.2 21.8 15.3 69 3.5 NE 6 9 3 5 1014.7 1014.6 0.0
21/09:00pm 21.8 22.5 15.6 68 3.7 NE 6 7 3 4 1014.4 1014.3 0.0
21/08:30pm 21.5 22.1 15.3 68 3.7 NE 6 9 3 5 1014.2 1014.1 0.0
21/08:00pm 21.9 22.2 15.0 65 4.1 ENE 7 9 4 5 1014.0 - 0.0
21/07:30pm 22.9 22.7 14.7 60 4.9 ENE 9 13 5 7 1013.7 1013.6 0.0
21/07:00pm 24.1 23.8 14.5 55 5.7 ENE 9 17 5 9 1013.3 - 0.0
21/06:30pm 25.6 24.4 14.1 49 6.8 ENE 13 20 7 11 1012.9 1012.8 0.0
21/06:00pm 27.2 25.1 12.4 40 8.6 ENE 15 22 8 12 1012.7 1012.6 0.0
21/05:30pm 29.6 27.8 10.7 31 10.8 ENE 11 19 6 10 1012.3 1012.2 0.0
21/05:00pm 30.9 29.5 10.8 29 11.6 E 9 24 5 13 1011.9 - 0.0
21/04:30pm 31.6 29.4 10.9 28 12.0 ENE 13 24 7 13 1011.8 1011.7 0.0
21/04:00pm 31.7 30.9 13.9 34 10.8 ENE 11 19 6 10 1011.7 - 0.0
21/03:30pm 31.2 30.3 14.8 37 10.1 ENE 13 22 7 12 1011.7 1011.6 0.0
21/03:00pm 32.2 31.2 15.7 37 10.3 ENE 15 28 8 15 1011.9 1011.8 0.0
21/02:30pm 32.5 31.6 15.9 36 10.4 NE 15 24 8 13 1012.4 1012.3 0.0
21/02:00pm 30.9 30.3 15.7 39 9.4 E 13 24 7 13 1012.8 - 0.0
21/01:30pm 31.0 30.1 15.8 40 9.4 NE 15 22 8 12 1013.3 1013.2 0.0
21/01:00pm 30.2 30.3 16.6 44 8.5 ENE 11 20 6 11 1013.6 - 0.0
21/12:30pm 30.0 30.7 17.1 46 8.1 E 9 20 5 11 1014.1 1014.0 0.0
21/12:00pm 29.7 29.5 16.8 45 8.1 ESE 13 20 7 11 1014.5 1014.4 0.0
21/11:30am 30.0 30.1 17.5 47 7.9 ENE 13 20 7 11 1014.8 1014.7 0.0
21/11:00am 28.7 29.9 18.2 53 6.7 SE 9 20 5 11 1015.1 - 0.0
21/10:30am 27.0 27.9 18.3 59 5.5 E 11 19 6 10 1015.5 1015.4 0.0
21/10:00am 26.3 28.2 19.7 67 4.3 E 9 15 5 8 1015.6 - 0.0
21/09:30am 25.1 27.1 19.9 73 3.4 E 9 13 5 7 1015.5 1015.4 0.0
21/09:00am 22.9 24.9 19.9 83 1.9 E 9 13 5 7 1015.6 1015.5 0.0
21/08:30am 20.9 23.1 19.7 93 0.8 ENE 7 15 4 8 1015.3 1015.2 0.0
21/08:00am 18.9 21.8 18.2 96 0.4 CALM 0 4 0 2 1014.7 - 0.0
21/07:30am 17.6 19.9 16.8 95 0.5 CALM 0 0 0 0 1014.2 1014.1 0.0
21/07:00am 17.1 18.4 16.1 94 0.6 ENE 4 6 2 3 1013.6 - 0.0
21/06:30am 17.4 19.5 16.3 93 0.7 CALM 0 0 0 0 1013.3 1013.2 0.0
21/06:00am 17.6 19.8 16.6 94 0.6 CALM 0 0 0 0 1013.0 1012.9 0.0
21/05:30am 17.8 20.1 16.8 94 0.6 CALM 0 0 0 0 1012.8 1012.7 0.0
21/05:00am 18.1 20.5 17.1 94 0.6 CALM 0 0 0 0 1012.8 - 0.0
21/04:30am 18.4 21.0 17.4 94 0.6 CALM 0 0 0 0 1012.9 1012.8 0.0
21/04:00am 18.8 21.5 17.8 94 0.6 CALM 0 2 0 1 1012.9 - 0.0
21/03:30am 18.8 21.1 17.8 94 0.6 ESE 2 4 1 2 1013.1 1013.0 0.0
21/03:00am 19.1 21.7 18.3 95 0.5 ESE 2 4 1 2 1013.3 1013.2 0.0
21/02:30am 19.0 21.1 18.0 94 0.6 SE 4 4 2 2 1013.4 1013.3 0.0
21/02:00am 18.9 20.9 17.9 94 0.6 SE 4 6 2 3 1013.8 - 0.0
21/01:30am 18.6 20.3 17.1 91 0.9 SE 4 7 2 4 1014.0 1013.9 0.0
21/01:00am 18.8 21.3 17.3 91 0.9 CALM 0 0 0 0 1014.1 - 0.0
21/12:30am 19.0 21.6 17.5 91 0.9 CALM 0 0 0 0 1014.2 1014.1 0.0
21/12:00am 19.5 22.1 17.6 89 1.2 CALM 0 2 0 1 1014.3 1014.2 0.0
 
Date/Time
CST
Temp
°C
App
Temp
°C
Dew
Point
Rel
Hum
%
Delta-T
°C
Wind Press
QNH
hPa
Press
MSL
hPa
Rain
since 9 am
mm
Dir
 
Spd
km/h
Gust
km/h
Spd
kts
Gust
kts
20/11:30pm 19.8 21.8 17.9 89 1.2 NE 4 4 2 2 1014.5 1014.4 0.0
20/11:00pm 20.1 22.6 18.1 88 1.2 N 2 4 1 2 1014.6 - 0.0
20/10:30pm 20.3 22.7 17.9 86 1.5 N 2 6 1 3 1014.5 1014.4 0.0
20/10:00pm 20.7 23.2 18.1 85 1.6 NNE 2 4 1 2 1014.8 - 0.0
20/09:30pm 21.0 23.4 18.0 83 1.9 N 2 4 1 2 1014.8 1014.7 0.0
20/09:00pm 21.3 23.7 17.9 81 2.1 N 2 6 1 3 1014.8 1014.7 0.0
20/08:30pm 21.8 24.6 18.0 79 2.4 CALM 0 0 0 0 1014.5 1014.4 0.0
20/08:00pm 22.3 25.1 17.9 76 2.7 CALM 0 0 0 0 1014.2 - 0.0
20/07:30pm 23.0 25.6 17.5 71 3.4 CALM 0 0 0 0 1013.9 1013.8 0.0
20/07:00pm 24.3 26.5 17.5 66 4.2 N 2 4 1 2 1013.6 - 0.0
20/06:30pm 25.2 27.2 17.9 64 4.6 NNE 4 9 2 5 1013.3 1013.2 0.0
20/06:00pm 26.4 28.2 18.3 61 5.1 NNE 6 9 3 5 1013.1 1013.0 0.0
20/05:30pm 27.6 29.0 17.7 54 6.3 NNE 7 11 4 6 1012.8 1012.7 0.0
20/05:00pm 28.7 30.1 17.9 52 6.9 NNE 7 15 4 8 1012.7 - 0.0

Other Formats:

Comma delimited format used in spreadsheet applications
http://www.bom.gov.au/fwo/IDD60801/IDD60801.94119.axf

JavaScript Object Notation format (JSON) in row-major order
http://www.bom.gov.au/fwo/IDD60801/IDD60801.94119.json